aviador You're here:

LBWN Decoded Metar

VARNA in BULGARIA
Report Time2017-09-26 00:00:00
UTC Time2017-09-26 00:07:06
Flight Rules vfr VFR
Wind030° at 11 kt
W.Decomp.*RWY 09: 4.8 kt HW 9.9 kt LCW
W.Rank030° ranks 21
Current wind is above 030° avg. (7.6)
Visibility9999 m
Phenomena:N/A
Clouds:N/A
Expected CloudBase > 1,600 ft AGL from Temp-Dew spread
CeilingNone
Temp19°C (ISA +4)
Dew Point15°C (78% RH)
AAT16.7°C
QNH1017 hPa
Density Alt735 ft
Elevation141 ft
Report Wrong Elevation
Raw Report
METAR LBWN 260000Z 03011KT CAVOK 19/15 Q1017 NOSIG=

Extra information for LBWN:More info

Metar Taf Metar & Taf Last 4 Metars F.Rules Stats Wind Profile Meteogram Temp Stats Airport Information Weather charts Add Link Nearby VenuesMetar ALERT Operation Metar Decoded Social comments